sensor_id;sensor_type;location;lat;lon;timestamp;P1;durP1;ratioP1;P2;durP2;ratioP2
72584;SDS011;60618;40.084;32.908;2022-08-24T00:01:47;13.33;;;2.93;;
72584;SDS011;60618;40.084;32.908;2022-08-24T00:04:14;13.43;;;2.47;;
72584;SDS011;60618;40.084;32.908;2022-08-24T00:06:42;20.98;;;3.60;;
72584;SDS011;60618;40.084;32.908;2022-08-24T00:09:10;12.23;;;2.97;;
72584;SDS011;60618;40.084;32.908;2022-08-24T00:11:37;10.90;;;2.78;;
72584;SDS011;60618;40.084;32.908;2022-08-24T00:14:04;12.37;;;2.90;;
72584;SDS011;60618;40.084;32.908;2022-08-24T00:16:31;11.60;;;3.00;;
72584;SDS011;60618;40.084;32.908;2022-08-24T00:18:58;11.48;;;2.92;;
72584;SDS011;60618;40.084;32.908;2022-08-24T00:21:25;11.60;;;2.92;;
72584;SDS011;60618;40.084;32.908;2022-08-24T00:23:52;13.82;;;3.00;;
72584;SDS011;60618;40.084;32.908;2022-08-24T00:26:19;14.30;;;3.40;;
72584;SDS011;60618;40.084;32.908;2022-08-24T00:28:56;12.38;;;2.90;;
72584;SDS011;60618;40.084;32.908;2022-08-24T00:31:26;14.48;;;3.00;;
72584;SDS011;60618;40.084;32.908;2022-08-24T00:33:53;11.73;;;3.10;;
72584;SDS011;60618;40.084;32.908;2022-08-24T00:36:20;15.40;;;3.22;;
72584;SDS011;60618;40.084;32.908;2022-08-24T00:38:48;17.10;;;3.30;;
72584;SDS011;60618;40.084;32.908;2022-08-24T00:41:16;16.23;;;3.42;;
72584;SDS011;60618;40.084;32.908;2022-08-24T00:43:50;15.90;;;3.10;;
72584;SDS011;60618;40.084;32.908;2022-08-24T00:46:26;12.32;;;3.25;;
72584;SDS011;60618;40.084;32.908;2022-08-24T00:49:03;12.57;;;3.00;;
72584;SDS011;60618;40.084;32.908;2022-08-24T00:51:36;11.10;;;3.00;;
72584;SDS011;60618;40.084;32.908;2022-08-24T00:54:09;15.68;;;3.67;;
72584;SDS011;60618;40.084;32.908;2022-08-24T00:56:41;10.07;;;2.92;;
72584;SDS011;60618;40.084;32.908;2022-08-24T00:59:21;13.88;;;3.28;;
72584;SDS011;60618;40.084;32.908;2022-08-24T01:01:52;18.05;;;3.05;;
72584;SDS011;60618;40.084;32.908;2022-08-24T01:04:29;13.60;;;3.40;;
72584;SDS011;60618;40.084;32.908;2022-08-24T01:07:06;15.32;;;3.30;;
72584;SDS011;60618;40.084;32.908;2022-08-24T01:09:33;13.07;;;3.00;;
72584;SDS011;60618;40.084;32.908;2022-08-24T01:12:00;17.48;;;3.28;;
72584;SDS011;60618;40.084;32.908;2022-08-24T01:14:27;14.35;;;2.85;;
72584;SDS011;60618;40.084;32.908;2022-08-24T01:16:54;18.27;;;2.97;;
72584;SDS011;60618;40.084;32.908;2022-08-24T01:22:35;14.18;;;3.60;;
72584;SDS011;60618;40.084;32.908;2022-08-24T01:25:13;14.77;;;3.25;;
72584;SDS011;60618;40.084;32.908;2022-08-24T01:27:40;15.38;;;3.00;;
72584;SDS011;60618;40.084;32.908;2022-08-24T01:30:10;13.83;;;3.47;;
72584;SDS011;60618;40.084;32.908;2022-08-24T01:32:39;17.13;;;3.22;;
72584;SDS011;60618;40.084;32.908;2022-08-24T01:35:07;14.48;;;3.10;;
72584;SDS011;60618;40.084;32.908;2022-08-24T01:37:34;14.07;;;3.70;;
72584;SDS011;60618;40.084;32.908;2022-08-24T01:40:05;11.48;;;3.08;;
72584;SDS011;60618;40.084;32.908;2022-08-24T01:42:33;13.83;;;3.13;;
72584;SDS011;60618;40.084;32.908;2022-08-24T01:45:00;15.70;;;3.15;;
72584;SDS011;60618;40.084;32.908;2022-08-24T01:47:30;15.40;;;3.40;;
72584;SDS011;60618;40.084;32.908;2022-08-24T01:49:57;14.90;;;3.55;;
72584;SDS011;60618;40.084;32.908;2022-08-24T01:52:26;13.32;;;3.45;;
72584;SDS011;60618;40.084;32.908;2022-08-24T01:55:13;18.33;;;3.70;;
72584;SDS011;60618;40.084;32.908;2022-08-24T01:57:47;16.90;;;3.25;;
72584;SDS011;60618;40.084;32.908;2022-08-24T02:00:14;16.48;;;3.40;;
72584;SDS011;60618;40.084;32.908;2022-08-24T02:02:42;16.88;;;3.72;;
72584;SDS011;60618;40.084;32.908;2022-08-24T02:05:10;12.35;;;3.08;;
72584;SDS011;60618;40.084;32.908;2022-08-24T02:07:40;15.40;;;3.23;;
72584;SDS011;60618;40.084;32.908;2022-08-24T02:10:11;13.80;;;3.38;;
72584;SDS011;60618;40.084;32.908;2022-08-24T02:12:40;15.45;;;3.20;;
72584;SDS011;60618;40.084;32.908;2022-08-24T02:15:09;12.32;;;3.33;;
72584;SDS011;60618;40.084;32.908;2022-08-24T02:17:36;17.08;;;3.13;;
72584;SDS011;60618;40.084;32.908;2022-08-24T02:20:04;11.17;;;2.97;;
72584;SDS011;60618;40.084;32.908;2022-08-24T02:22:32;12.07;;;3.33;;
72584;SDS011;60618;40.084;32.908;2022-08-24T02:24:59;16.88;;;3.10;;
72584;SDS011;60618;40.084;32.908;2022-08-24T02:27:26;16.38;;;3.28;;
72584;SDS011;60618;40.084;32.908;2022-08-24T02:29:53;12.25;;;3.42;;
72584;SDS011;60618;40.084;32.908;2022-08-24T02:32:20;16.00;;;3.43;;
72584;SDS011;60618;40.084;32.908;2022-08-24T02:34:47;16.42;;;3.58;;
72584;SDS011;60618;40.084;32.908;2022-08-24T02:37:14;11.82;;;3.00;;
72584;SDS011;60618;40.084;32.908;2022-08-24T02:39:41;13.90;;;3.13;;
72584;SDS011;60618;40.084;32.908;2022-08-24T02:42:08;14.15;;;3.08;;
72584;SDS011;60618;40.084;32.908;2022-08-24T02:44:35;15.17;;;3.37;;
72584;SDS011;60618;40.084;32.908;2022-08-24T02:47:02;14.45;;;2.92;;
72584;SDS011;60618;40.084;32.908;2022-08-24T02:49:29;18.27;;;3.67;;
72584;SDS011;60618;40.084;32.908;2022-08-24T02:51:56;13.00;;;3.10;;
72584;SDS011;60618;40.084;32.908;2022-08-24T02:54:23;13.35;;;3.47;;
72584;SDS011;60618;40.084;32.908;2022-08-24T02:56:50;16.50;;;3.33;;
72584;SDS011;60618;40.084;32.908;2022-08-24T02:59:17;16.08;;;3.47;;
72584;SDS011;60618;40.084;32.908;2022-08-24T03:01:44;14.02;;;3.03;;
72584;SDS011;60618;40.084;32.908;2022-08-24T03:04:15;11.57;;;3.22;;
72584;SDS011;60618;40.084;32.908;2022-08-24T03:06:42;14.18;;;2.60;;
72584;SDS011;60618;40.084;32.908;2022-08-24T03:09:09;14.90;;;3.33;;
72584;SDS011;60618;40.084;32.908;2022-08-24T03:11:36;11.82;;;3.33;;
72584;SDS011;60618;40.084;32.908;2022-08-24T03:14:03;17.05;;;3.53;;
72584;SDS011;60618;40.084;32.908;2022-08-24T03:16:30;13.90;;;3.30;;
72584;SDS011;60618;40.084;32.908;2022-08-24T03:18:57;13.88;;;3.00;;
72584;SDS011;60618;40.084;32.908;2022-08-24T03:21:24;15.63;;;3.27;;
72584;SDS011;60618;40.084;32.908;2022-08-24T03:23:52;16.25;;;3.15;;
72584;SDS011;60618;40.084;32.908;2022-08-24T03:26:18;13.50;;;3.20;;
72584;SDS011;60618;40.084;32.908;2022-08-24T03:28:46;15.38;;;3.25;;
72584;SDS011;60618;40.084;32.908;2022-08-24T03:31:14;13.15;;;3.00;;
72584;SDS011;60618;40.084;32.908;2022-08-24T03:33:42;13.73;;;2.90;;
72584;SDS011;60618;40.084;32.908;2022-08-24T03:36:09;15.43;;;3.05;;
72584;SDS011;60618;40.084;32.908;2022-08-24T03:38:39;13.65;;;3.30;;
72584;SDS011;60618;40.084;32.908;2022-08-24T03:41:07;14.73;;;3.20;;
72584;SDS011;60618;40.084;32.908;2022-08-24T03:43:36;18.17;;;3.15;;
72584;SDS011;60618;40.084;32.908;2022-08-24T03:46:05;13.77;;;3.17;;
72584;SDS011;60618;40.084;32.908;2022-08-24T03:48:33;17.38;;;3.05;;
72584;SDS011;60618;40.084;32.908;2022-08-24T03:51:01;13.13;;;3.60;;
72584;SDS011;60618;40.084;32.908;2022-08-24T03:53:28;16.90;;;3.33;;
72584;SDS011;60618;40.084;32.908;2022-08-24T03:55:55;13.00;;;3.25;;
72584;SDS011;60618;40.084;32.908;2022-08-24T03:58:22;11.77;;;3.13;;
72584;SDS011;60618;40.084;32.908;2022-08-24T04:00:49;11.88;;;3.38;;
72584;SDS011;60618;40.084;32.908;2022-08-24T04:03:16;18.80;;;3.28;;
72584;SDS011;60618;40.084;32.908;2022-08-24T04:05:43;13.32;;;2.75;;
72584;SDS011;60618;40.084;32.908;2022-08-24T04:08:10;15.35;;;3.42;;
72584;SDS011;60618;40.084;32.908;2022-08-24T04:10:43;9.87;;;2.80;;
72584;SDS011;60618;40.084;32.908;2022-08-24T04:13:10;14.90;;;3.38;;
72584;SDS011;60618;40.084;32.908;2022-08-24T04:15:38;16.88;;;3.38;;
72584;SDS011;60618;40.084;32.908;2022-08-24T04:18:07;14.95;;;3.30;;
72584;SDS011;60618;40.084;32.908;2022-08-24T04:20:40;16.15;;;3.33;;
72584;SDS011;60618;40.084;32.908;2022-08-24T04:23:08;13.57;;;3.30;;
72584;SDS011;60618;40.084;32.908;2022-08-24T04:25:45;15.13;;;3.22;;
72584;SDS011;60618;40.084;32.908;2022-08-24T04:28:15;17.77;;;3.90;;
72584;SDS011;60618;40.084;32.908;2022-08-24T04:30:46;15.52;;;3.15;;
72584;SDS011;60618;40.084;32.908;2022-08-24T04:33:14;17.13;;;2.97;;
72584;SDS011;60618;40.084;32.908;2022-08-24T04:35:42;18.20;;;3.60;;
72584;SDS011;60618;40.084;32.908;2022-08-24T04:38:11;14.63;;;3.10;;
72584;SDS011;60618;40.084;32.908;2022-08-24T04:40:42;12.60;;;2.97;;
72584;SDS011;60618;40.084;32.908;2022-08-24T04:43:12;13.07;;;3.08;;
72584;SDS011;60618;40.084;32.908;2022-08-24T04:45:45;16.27;;;2.92;;
72584;SDS011;60618;40.084;32.908;2022-08-24T04:48:13;15.27;;;3.23;;
72584;SDS011;60618;40.084;32.908;2022-08-24T04:50:41;12.88;;;2.90;;
72584;SDS011;60618;40.084;32.908;2022-08-24T04:53:10;10.95;;;2.80;;
72584;SDS011;60618;40.084;32.908;2022-08-24T04:55:43;12.25;;;2.95;;
72584;SDS011;60618;40.084;32.908;2022-08-24T04:58:12;12.90;;;3.00;;
72584;SDS011;60618;40.084;32.908;2022-08-24T05:00:40;10.37;;;2.83;;
72584;SDS011;60618;40.084;32.908;2022-08-24T05:03:08;11.85;;;3.00;;
72584;SDS011;60618;40.084;32.908;2022-08-24T05:05:39;10.30;;;2.90;;
72584;SDS011;60618;40.084;32.908;2022-08-24T05:08:07;11.30;;;2.95;;
72584;SDS011;60618;40.084;32.908;2022-08-24T05:10:38;14.88;;;3.15;;
72584;SDS011;60618;40.084;32.908;2022-08-24T05:13:08;15.90;;;3.00;;
72584;SDS011;60618;40.084;32.908;2022-08-24T05:15:39;10.93;;;3.17;;
72584;SDS011;60618;40.084;32.908;2022-08-24T05:18:08;15.23;;;3.53;;
72584;SDS011;60618;40.084;32.908;2022-08-24T05:20:38;14.43;;;3.40;;
72584;SDS011;60618;40.084;32.908;2022-08-24T05:23:06;10.85;;;3.00;;
72584;SDS011;60618;40.084;32.908;2022-08-24T05:25:34;12.87;;;3.07;;
72584;SDS011;60618;40.084;32.908;2022-08-24T05:28:01;17.55;;;3.05;;
72584;SDS011;60618;40.084;32.908;2022-08-24T05:30:28;12.13;;;2.97;;
72584;SDS011;60618;40.084;32.908;2022-08-24T05:32:55;13.55;;;3.40;;
72584;SDS011;60618;40.084;32.908;2022-08-24T05:35:22;14.10;;;3.13;;
72584;SDS011;60618;40.084;32.908;2022-08-24T05:37:49;11.23;;;3.33;;
72584;SDS011;60618;40.084;32.908;2022-08-24T05:40:16;13.25;;;3.00;;
72584;SDS011;60618;40.084;32.908;2022-08-24T05:42:44;14.65;;;3.58;;
72584;SDS011;60618;40.084;32.908;2022-08-24T05:45:11;18.88;;;3.67;;
72584;SDS011;60618;40.084;32.908;2022-08-24T05:47:38;14.60;;;3.20;;
72584;SDS011;60618;40.084;32.908;2022-08-24T05:50:06;9.83;;;2.90;;
72584;SDS011;60618;40.084;32.908;2022-08-24T05:52:33;13.32;;;2.92;;
72584;SDS011;60618;40.084;32.908;2022-08-24T05:55:01;15.15;;;3.28;;
72584;SDS011;60618;40.084;32.908;2022-08-24T05:57:33;13.57;;;2.90;;
72584;SDS011;60618;40.084;32.908;2022-08-24T06:00:00;14.30;;;2.92;;
72584;SDS011;60618;40.084;32.908;2022-08-24T06:02:28;12.57;;;3.07;;
72584;SDS011;60618;40.084;32.908;2022-08-24T06:04:55;12.98;;;2.83;;
72584;SDS011;60618;40.084;32.908;2022-08-24T06:07:22;13.38;;;2.80;;
72584;SDS011;60618;40.084;32.908;2022-08-24T06:09:49;12.15;;;3.20;;
72584;SDS011;60618;40.084;32.908;2022-08-24T06:12:16;14.95;;;3.15;;
72584;SDS011;60618;40.084;32.908;2022-08-24T06:14:46;11.53;;;2.87;;
72584;SDS011;60618;40.084;32.908;2022-08-24T06:17:13;11.88;;;3.10;;
72584;SDS011;60618;40.084;32.908;2022-08-24T06:19:40;15.80;;;3.22;;
72584;SDS011;60618;40.084;32.908;2022-08-24T06:22:07;16.20;;;3.05;;
72584;SDS011;60618;40.084;32.908;2022-08-24T06:24:35;12.50;;;3.08;;
72584;SDS011;60618;40.084;32.908;2022-08-24T06:27:03;11.37;;;2.93;;
72584;SDS011;60618;40.084;32.908;2022-08-24T06:29:32;17.33;;;3.40;;
72584;SDS011;60618;40.084;32.908;2022-08-24T06:31:59;11.95;;;3.10;;
72584;SDS011;60618;40.084;32.908;2022-08-24T06:34:26;14.57;;;3.55;;
72584;SDS011;60618;40.084;32.908;2022-08-24T06:36:53;13.65;;;3.05;;
72584;SDS011;60618;40.084;32.908;2022-08-24T06:39:20;13.87;;;2.90;;
72584;SDS011;60618;40.084;32.908;2022-08-24T06:41:47;16.75;;;3.70;;
72584;SDS011;60618;40.084;32.908;2022-08-24T06:44:14;10.98;;;3.08;;
72584;SDS011;60618;40.084;32.908;2022-08-24T06:46:41;12.95;;;3.28;;
72584;SDS011;60618;40.084;32.908;2022-08-24T06:49:08;13.75;;;3.30;;
72584;SDS011;60618;40.084;32.908;2022-08-24T06:51:35;15.03;;;3.00;;
72584;SDS011;60618;40.084;32.908;2022-08-24T06:54:02;16.58;;;3.00;;
72584;SDS011;60618;40.084;32.908;2022-08-24T06:56:29;12.35;;;2.67;;
72584;SDS011;60618;40.084;32.908;2022-08-24T06:58:56;11.10;;;2.97;;
72584;SDS011;60618;40.084;32.908;2022-08-24T07:01:23;14.93;;;3.22;;
72584;SDS011;60618;40.084;32.908;2022-08-24T07:03:51;10.27;;;2.50;;
72584;SDS011;60618;40.084;32.908;2022-08-24T07:06:18;16.55;;;3.25;;
72584;SDS011;60618;40.084;32.908;2022-08-24T07:08:46;11.20;;;2.90;;
72584;SDS011;60618;40.084;32.908;2022-08-24T07:11:14;13.88;;;3.08;;
72584;SDS011;60618;40.084;32.908;2022-08-24T07:13:43;16.05;;;3.40;;
72584;SDS011;60618;40.084;32.908;2022-08-24T07:16:10;15.87;;;3.00;;
72584;SDS011;60618;40.084;32.908;2022-08-24T07:18:38;10.20;;;2.95;;
72584;SDS011;60618;40.084;32.908;2022-08-24T07:21:06;16.50;;;3.28;;
72584;SDS011;60618;40.084;32.908;2022-08-24T07:23:33;14.65;;;3.15;;
72584;SDS011;60618;40.084;32.908;2022-08-24T07:26:12;14.38;;;3.17;;
72584;SDS011;60618;40.084;32.908;2022-08-24T07:28:55;18.17;;;3.63;;
72584;SDS011;60618;40.084;32.908;2022-08-24T07:31:23;16.85;;;3.47;;
72584;SDS011;60618;40.084;32.908;2022-08-24T07:33:50;17.85;;;3.67;;
72584;SDS011;60618;40.084;32.908;2022-08-24T07:36:17;16.98;;;3.08;;
72584;SDS011;60618;40.084;32.908;2022-08-24T07:38:49;13.85;;;3.75;;
72584;SDS011;60618;40.084;32.908;2022-08-24T07:41:16;16.57;;;3.13;;
72584;SDS011;60618;40.084;32.908;2022-08-24T07:44:03;12.85;;;3.10;;
72584;SDS011;60618;40.084;32.908;2022-08-24T07:46:30;15.15;;;3.72;;
72584;SDS011;60618;40.084;32.908;2022-08-24T07:48:57;14.65;;;3.58;;
72584;SDS011;60618;40.084;32.908;2022-08-24T07:51:44;17.05;;;3.58;;
72584;SDS011;60618;40.084;32.908;2022-08-24T07:54:12;16.43;;;3.57;;
72584;SDS011;60618;40.084;32.908;2022-08-24T07:56:40;16.35;;;3.60;;
72584;SDS011;60618;40.084;32.908;2022-08-24T07:59:08;18.73;;;3.55;;
72584;SDS011;60618;40.084;32.908;2022-08-24T08:01:39;12.23;;;3.00;;
72584;SDS011;60618;40.084;32.908;2022-08-24T08:04:07;15.52;;;3.45;;
72584;SDS011;60618;40.084;32.908;2022-08-24T08:06:35;15.30;;;3.43;;
72584;SDS011;60618;40.084;32.908;2022-08-24T08:09:03;14.32;;;3.50;;
72584;SDS011;60618;40.084;32.908;2022-08-24T08:11:31;11.27;;;3.53;;
72584;SDS011;60618;40.084;32.908;2022-08-24T08:13:58;11.48;;;3.50;;
72584;SDS011;60618;40.084;32.908;2022-08-24T08:16:25;17.67;;;3.92;;
72584;SDS011;60618;40.084;32.908;2022-08-24T08:18:53;12.53;;;3.57;;
72584;SDS011;60618;40.084;32.908;2022-08-24T08:21:43;15.32;;;3.90;;
72584;SDS011;60618;40.084;32.908;2022-08-24T08:24:13;15.55;;;3.83;;
72584;SDS011;60618;40.084;32.908;2022-08-24T08:26:44;16.35;;;3.78;;
72584;SDS011;60618;40.084;32.908;2022-08-24T08:29:12;17.05;;;4.10;;
72584;SDS011;60618;40.084;32.908;2022-08-24T08:31:39;18.53;;;4.20;;
72584;SDS011;60618;40.084;32.908;2022-08-24T08:34:07;13.23;;;3.80;;
72584;SDS011;60618;40.084;32.908;2022-08-24T08:36:35;12.38;;;3.25;;
72584;SDS011;60618;40.084;32.908;2022-08-24T08:39:03;12.38;;;3.33;;
72584;SDS011;60618;40.084;32.908;2022-08-24T08:57:38;12.90;;;3.93;;
72584;SDS011;60618;40.084;32.908;2022-08-24T09:06:11;10.38;;;2.92;;
72584;SDS011;60618;40.084;32.908;2022-08-24T09:22:24;9.88;;;3.38;;
72584;SDS011;60618;40.084;32.908;2022-08-24T09:30:23;11.55;;;3.50;;
72584;SDS011;60618;40.084;32.908;2022-08-24T09:33:00;8.77;;;3.70;;
72584;SDS011;60618;40.084;32.908;2022-08-24T09:35:39;11.68;;;3.85;;
72584;SDS011;60618;40.084;32.908;2022-08-24T09:57:32;16.00;;;4.65;;
72584;SDS011;60618;40.084;32.908;2022-08-24T10:00:25;11.05;;;4.03;;
72584;SDS011;60618;40.084;32.908;2022-08-24T10:02:57;13.20;;;3.88;;
72584;SDS011;60618;40.084;32.908;2022-08-24T10:08:29;16.63;;;4.30;;
72584;SDS011;60618;40.084;32.908;2022-08-24T10:11:33;9.57;;;3.60;;
72584;SDS011;60618;40.084;32.908;2022-08-24T10:19:51;9.80;;;3.57;;
72584;SDS011;60618;40.084;32.908;2022-08-24T10:22:41;9.50;;;3.58;;
72584;SDS011;60618;40.084;32.908;2022-08-24T10:25:36;10.65;;;3.95;;
72584;SDS011;60618;40.084;32.908;2022-08-24T10:48:56;12.70;;;3.53;;
72584;SDS011;60618;40.084;32.908;2022-08-24T10:54:14;7.88;;;3.15;;
72584;SDS011;60618;40.084;32.908;2022-08-24T10:59:19;9.23;;;3.30;;
72584;SDS011;60618;40.084;32.908;2022-08-24T11:01:59;8.63;;;3.17;;
72584;SDS011;60618;40.084;32.908;2022-08-24T11:04:28;10.95;;;3.22;;
72584;SDS011;60618;40.084;32.908;2022-08-24T11:09:42;10.75;;;3.60;;
72584;SDS011;60618;40.084;32.908;2022-08-24T11:12:24;8.55;;;3.30;;
72584;SDS011;60618;40.084;32.908;2022-08-24T11:14:53;7.77;;;3.47;;
72584;SDS011;60618;40.084;32.908;2022-08-24T11:17:22;10.85;;;3.42;;
72584;SDS011;60618;40.084;32.908;2022-08-24T11:19:51;7.32;;;3.22;;
72584;SDS011;60618;40.084;32.908;2022-08-24T11:25:20;9.05;;;3.60;;
72584;SDS011;60618;40.084;32.908;2022-08-24T11:27:56;12.87;;;4.00;;
72584;SDS011;60618;40.084;32.908;2022-08-24T11:30:45;11.07;;;3.40;;
72584;SDS011;60618;40.084;32.908;2022-08-24T11:33:26;8.15;;;3.40;;
72584;SDS011;60618;40.084;32.908;2022-08-24T11:35:53;6.70;;;3.10;;
72584;SDS011;60618;40.084;32.908;2022-08-24T11:38:22;8.75;;;3.70;;
72584;SDS011;60618;40.084;32.908;2022-08-24T11:40:54;10.10;;;3.47;;
72584;SDS011;60618;40.084;32.908;2022-08-24T11:49:12;6.38;;;3.10;;
72584;SDS011;60618;40.084;32.908;2022-08-24T12:02:25;8.98;;;3.60;;
72584;SDS011;60618;40.084;32.908;2022-08-24T12:05:00;7.38;;;3.35;;
72584;SDS011;60618;40.084;32.908;2022-08-24T12:15:46;7.50;;;3.40;;
72584;SDS011;60618;40.084;32.908;2022-08-24T12:18:54;9.27;;;3.25;;
72584;SDS011;60618;40.084;32.908;2022-08-24T12:21:23;8.33;;;3.60;;
72584;SDS011;60618;40.084;32.908;2022-08-24T12:23:59;7.18;;;3.42;;
72584;SDS011;60618;40.084;32.908;2022-08-24T12:26:35;9.75;;;3.70;;
72584;SDS011;60618;40.084;32.908;2022-08-24T12:29:08;7.18;;;3.53;;
72584;SDS011;60618;40.084;32.908;2022-08-24T12:31:44;10.50;;;4.05;;
72584;SDS011;60618;40.084;32.908;2022-08-24T12:37:08;11.82;;;3.72;;
72584;SDS011;60618;40.084;32.908;2022-08-24T12:40:00;9.50;;;3.95;;
72584;SDS011;60618;40.084;32.908;2022-08-24T12:45:07;7.68;;;3.75;;
72584;SDS011;60618;40.084;32.908;2022-08-24T13:01:44;24.57;;;5.33;;
72584;SDS011;60618;40.084;32.908;2022-08-24T13:04:17;12.00;;;4.90;;
72584;SDS011;60618;40.084;32.908;2022-08-24T13:09:38;12.45;;;4.47;;
72584;SDS011;60618;40.084;32.908;2022-08-24T13:17:48;8.85;;;4.38;;
72584;SDS011;60618;40.084;32.908;2022-08-24T13:23:06;9.15;;;4.32;;
72584;SDS011;60618;40.084;32.908;2022-08-24T13:33:30;13.30;;;4.85;;
72584;SDS011;60618;40.084;32.908;2022-08-24T13:36:04;11.68;;;5.00;;
72584;SDS011;60618;40.084;32.908;2022-08-24T13:43:44;10.68;;;4.25;;
72584;SDS011;60618;40.084;32.908;2022-08-24T13:51:42;9.05;;;4.43;;
72584;SDS011;60618;40.084;32.908;2022-08-24T13:54:18;10.23;;;4.43;;
72584;SDS011;60618;40.084;32.908;2022-08-24T14:06:04;13.10;;;4.63;;
72584;SDS011;60618;40.084;32.908;2022-08-24T14:11:13;11.13;;;4.53;;
72584;SDS011;60618;40.084;32.908;2022-08-24T14:14:14;10.13;;;4.72;;
72584;SDS011;60618;40.084;32.908;2022-08-24T14:16:55;9.13;;;3.95;;
72584;SDS011;60618;40.084;32.908;2022-08-24T14:22:32;12.20;;;4.97;;
72584;SDS011;60618;40.084;32.908;2022-08-24T14:48:38;11.90;;;5.63;;
72584;SDS011;60618;40.084;32.908;2022-08-24T14:54:15;12.40;;;5.70;;
72584;SDS011;60618;40.084;32.908;2022-08-24T14:59:43;14.15;;;5.55;;
72584;SDS011;60618;40.084;32.908;2022-08-24T15:07:56;13.80;;;5.53;;
72584;SDS011;60618;40.084;32.908;2022-08-24T15:11:09;14.55;;;5.15;;
72584;SDS011;60618;40.084;32.908;2022-08-24T15:13:35;10.57;;;5.43;;
72584;SDS011;60618;40.084;32.908;2022-08-24T15:18:59;11.25;;;4.97;;
72584;SDS011;60618;40.084;32.908;2022-08-24T15:29:47;13.03;;;5.50;;
72584;SDS011;60618;40.084;32.908;2022-08-24T15:32:17;9.77;;;4.72;;
72584;SDS011;60618;40.084;32.908;2022-08-24T15:37:16;10.70;;;5.18;;
72584;SDS011;60618;40.084;32.908;2022-08-24T15:40:02;13.73;;;5.65;;
72584;SDS011;60618;40.084;32.908;2022-08-24T15:42:31;14.00;;;5.47;;
72584;SDS011;60618;40.084;32.908;2022-08-24T15:45:02;13.02;;;5.40;;
72584;SDS011;60618;40.084;32.908;2022-08-24T15:47:31;12.15;;;5.38;;
72584;SDS011;60618;40.084;32.908;2022-08-24T15:50:18;12.65;;;5.30;;
72584;SDS011;60618;40.084;32.908;2022-08-24T15:52:46;10.77;;;4.97;;
72584;SDS011;60618;40.084;32.908;2022-08-24T15:57:57;10.13;;;4.88;;
72584;SDS011;60618;40.084;32.908;2022-08-24T16:00:38;13.93;;;5.47;;
72584;SDS011;60618;40.084;32.908;2022-08-24T16:03:20;9.95;;;5.15;;
72584;SDS011;60618;40.084;32.908;2022-08-24T16:06:21;8.90;;;4.75;;
72584;SDS011;60618;40.084;32.908;2022-08-24T16:09:03;10.17;;;5.23;;
72584;SDS011;60618;40.084;32.908;2022-08-24T16:11:44;11.55;;;4.78;;
72584;SDS011;60618;40.084;32.908;2022-08-24T16:14:41;9.80;;;4.60;;
72584;SDS011;60618;40.084;32.908;2022-08-24T16:17:32;14.15;;;4.88;;
72584;SDS011;60618;40.084;32.908;2022-08-24T16:20:00;9.68;;;5.18;;
72584;SDS011;60618;40.084;32.908;2022-08-24T16:22:57;11.53;;;5.00;;
72584;SDS011;60618;40.084;32.908;2022-08-24T16:30:37;11.80;;;4.75;;
72584;SDS011;60618;40.084;32.908;2022-08-24T16:35:57;10.40;;;5.30;;
72584;SDS011;60618;40.084;32.908;2022-08-24T16:38:29;12.38;;;5.35;;
72584;SDS011;60618;40.084;32.908;2022-08-24T16:40:57;9.98;;;5.15;;
72584;SDS011;60618;40.084;32.908;2022-08-24T16:43:30;10.18;;;4.85;;
72584;SDS011;60618;40.084;32.908;2022-08-24T16:46:00;9.55;;;4.90;;
72584;SDS011;60618;40.084;32.908;2022-08-24T16:48:29;10.67;;;5.10;;
72584;SDS011;60618;40.084;32.908;2022-08-24T16:50:57;11.57;;;5.60;;
72584;SDS011;60618;40.084;32.908;2022-08-24T16:53:24;11.32;;;5.63;;
72584;SDS011;60618;40.084;32.908;2022-08-24T16:55:51;11.10;;;5.80;;
72584;SDS011;60618;40.084;32.908;2022-08-24T16:58:19;13.00;;;5.60;;
72584;SDS011;60618;40.084;32.908;2022-08-24T17:00:48;16.57;;;5.87;;
72584;SDS011;60618;40.084;32.908;2022-08-24T17:03:15;11.95;;;5.82;;
72584;SDS011;60618;40.084;32.908;2022-08-24T17:05:43;11.60;;;5.93;;
72584;SDS011;60618;40.084;32.908;2022-08-24T17:08:09;13.20;;;6.25;;
72584;SDS011;60618;40.084;32.908;2022-08-24T17:10:37;16.40;;;6.90;;
72584;SDS011;60618;40.084;32.908;2022-08-24T17:13:04;11.27;;;5.93;;
72584;SDS011;60618;40.084;32.908;2022-08-24T17:15:31;13.82;;;5.78;;
72584;SDS011;60618;40.084;32.908;2022-08-24T17:18:02;10.98;;;5.80;;
72584;SDS011;60618;40.084;32.908;2022-08-24T17:20:33;10.60;;;5.43;;
72584;SDS011;60618;40.084;32.908;2022-08-24T17:23:00;12.95;;;5.38;;
72584;SDS011;60618;40.084;32.908;2022-08-24T17:25:28;11.27;;;5.43;;
72584;SDS011;60618;40.084;32.908;2022-08-24T17:27:55;12.18;;;5.63;;
72584;SDS011;60618;40.084;32.908;2022-08-24T17:30:26;11.60;;;5.90;;
72584;SDS011;60618;40.084;32.908;2022-08-24T17:32:56;11.27;;;5.55;;
72584;SDS011;60618;40.084;32.908;2022-08-24T17:35:24;11.30;;;5.50;;
72584;SDS011;60618;40.084;32.908;2022-08-24T17:37:51;13.50;;;5.87;;
72584;SDS011;60618;40.084;32.908;2022-08-24T17:40:19;14.07;;;6.28;;
72584;SDS011;60618;40.084;32.908;2022-08-24T17:42:49;13.45;;;6.15;;
72584;SDS011;60618;40.084;32.908;2022-08-24T17:45:17;10.57;;;5.28;;
72584;SDS011;60618;40.084;32.908;2022-08-24T17:47:45;11.20;;;5.18;;
72584;SDS011;60618;40.084;32.908;2022-08-24T17:50:12;9.73;;;5.10;;
72584;SDS011;60618;40.084;32.908;2022-08-24T17:52:40;11.15;;;4.80;;
72584;SDS011;60618;40.084;32.908;2022-08-24T17:55:09;12.77;;;5.07;;
72584;SDS011;60618;40.084;32.908;2022-08-24T17:57:38;12.10;;;4.78;;
72584;SDS011;60618;40.084;32.908;2022-08-24T18:00:06;9.07;;;4.53;;
72584;SDS011;60618;40.084;32.908;2022-08-24T18:02:36;12.87;;;4.20;;
72584;SDS011;60618;40.084;32.908;2022-08-24T18:05:03;11.95;;;4.30;;
72584;SDS011;60618;40.084;32.908;2022-08-24T18:07:30;10.65;;;4.65;;
72584;SDS011;60618;40.084;32.908;2022-08-24T18:10:22;11.48;;;4.43;;
72584;SDS011;60618;40.084;32.908;2022-08-24T18:12:50;12.20;;;4.53;;
72584;SDS011;60618;40.084;32.908;2022-08-24T18:15:17;16.47;;;5.10;;
72584;SDS011;60618;40.084;32.908;2022-08-24T18:17:46;12.93;;;4.35;;
72584;SDS011;60618;40.084;32.908;2022-08-24T18:20:15;13.10;;;4.93;;
72584;SDS011;60618;40.084;32.908;2022-08-24T18:22:50;12.70;;;4.10;;
72584;SDS011;60618;40.084;32.908;2022-08-24T18:25:19;9.73;;;4.40;;
72584;SDS011;60618;40.084;32.908;2022-08-24T18:27:51;10.30;;;4.30;;
72584;SDS011;60618;40.084;32.908;2022-08-24T18:30:21;11.20;;;4.40;;
72584;SDS011;60618;40.084;32.908;2022-08-24T18:32:55;11.25;;;4.10;;
72584;SDS011;60618;40.084;32.908;2022-08-24T18:35:23;12.88;;;4.00;;
72584;SDS011;60618;40.084;32.908;2022-08-24T18:37:50;12.35;;;4.28;;
72584;SDS011;60618;40.084;32.908;2022-08-24T18:40:17;10.40;;;4.27;;
72584;SDS011;60618;40.084;32.908;2022-08-24T18:42:46;12.95;;;4.53;;
72584;SDS011;60618;40.084;32.908;2022-08-24T18:45:14;8.05;;;4.05;;
72584;SDS011;60618;40.084;32.908;2022-08-24T18:47:41;9.38;;;4.25;;
72584;SDS011;60618;40.084;32.908;2022-08-24T18:50:08;11.27;;;4.20;;
72584;SDS011;60618;40.084;32.908;2022-08-24T18:52:39;12.23;;;4.50;;
72584;SDS011;60618;40.084;32.908;2022-08-24T18:55:07;14.18;;;4.35;;
72584;SDS011;60618;40.084;32.908;2022-08-24T18:57:35;10.55;;;4.28;;